NCAR-RAP Real-Time Weather Data

Output produced by METARs form (10 April 2020  07:15 UTC)
found at http://weather.rap.ucar.edu/surface/
 
KDRT 100653Z AUTO 00000KT 10SM CLR 22/16 A2996 RMK AO2 SLP129 T02170156
KDRT 100553Z AUTO 00000KT 10SM CLR 22/15 A2996 RMK AO2 SLP129 T02220150 10306 20222 403280217 51026
KDRT 100453Z AUTO 12004KT 10SM BKN110 23/14 A2994 RMK AO2 SLP123 T02330144
KDRT 100353Z AUTO 06007KT 10SM BKN120 24/14 A2992 RMK AO2 PRESRR SLP116 T02440144
KDRT 100253Z AUTO 09008KT 10SM CLR 25/16 A2988 RMK AO2 SLP103 T02500156 53030
KDRT 100153Z AUTO 03005KT 10SM CLR 27/13 A2983 RMK AO2 SLP087 T02670128
KDRT 100053Z AUTO 04003KT 10SM SCT120 29/12 A2981 RMK AO2 SLP077 T02890122
KDRT 092353Z AUTO 03004KT 10SM CLR 31/12 A2979 RMK AO2 SLP070 60000 T03060117 10328 20306 58007
KDRT 092253Z AUTO 33009KT 10SM CLR 31/13 A2981 RMK AO2 SLP078 T03110128
KDRT 092153Z AUTO 32006KT 10SM CLR 31/14 A2980 RMK AO2 RAB2054E34 SLP074 P0000 T03110144
KDRT 092053Z AUTO 30007KT 10SM FEW035 SCT070 SCT080 32/12 A2981 RMK AO2 SLP077 T03170122 56025
KDRT 091953Z AUTO 29012KT 10SM CLR 32/12 A2983 RMK AO2 SLP085 T03220117
KDRT 091853Z AUTO 33008G16KT 10SM CLR 33/13 A2985 RMK AO2 SLP092 T03280133
KDRT 091753Z AUTO 32010G20KT 10SM CLR 32/14 A2989 RMK AO2 SLP103 T03220144 10322 20228 58010
KDRT 091653Z AUTO 30005KT 10SM CLR 28/20 A2992 RMK AO2 SLP115 T02830200
KDRT 091553Z AUTO 31008KT 9SM CLR 26/21 A2992 RMK AO2 SLP114 T02610211
KDRT 091453Z AUTO 29007KT 8SM CLR 25/21 A2992 RMK AO2 SLP115 T02500206 51020
KDRT 091353Z AUTO 28008KT 6SM HZ CLR 23/21 A2990 RMK AO2 SLP110 T02330206
KDRT 091253Z AUTO 09005KT 6SM HZ CLR 23/20 A2987 RMK AO2 SLP098 T02330200
KDRT 091153Z AUTO 09004KT 9SM CLR 23/19 A2986 RMK AO2 SLP093 T02330194 10244 20217 53001
KDRT 091053Z AUTO 00000KT 10SM CLR 23/19 A2985 RMK AO2 SLP089 T02280189
KDRT 090953Z AUTO 10SM CLR 24/18 A2985 RMK AO2 SLP090 T02390183
KDRT 090853Z AUTO 07006KT 10SM CLR 24/18 A2985 RMK AO2 SLP091 T02390178 58010